Time;durP1;ratioP1;P1;durP2;ratioP2;P2;SDS_P1;SDS_P2;PMS_P1;PMS_P2;Temp;Humidity;BMP_temperature;BMP_pressure;BME280_temperature;BME280_humidity;BME280_pressure;Samples;Min_cycle;Max_cycle;Signal;HPM_P1;HPM_P2
2022/01/06 07:01:40;;;;;;;7.00;2.40;;;;;;;;;;5303748;23;20531;-79
2022/01/06 07:04:07;;;;;;;7.90;2.97;;;;;;;;;;4929800;29;20440;-78
2022/01/06 07:06:34;;;;;;;7.45;1.77;;;;;;;;;;4931711;29;20126;-78
2022/01/06 07:09:01;;;;;;;5.25;1.70;;;;;;;;;;4925323;29;20505;-78
2022/01/06 07:11:27;;;;;;;8.70;2.35;;;;;;;;;;4924237;29;20047;-78
2022/01/06 07:13:54;;;;;;;4.93;2.25;;;;;;;;;;4933393;29;20048;-77
2022/01/06 07:16:21;;;;;;;6.68;2.67;;;;;;;;;;4929680;29;20051;-78
2022/01/06 07:18:47;;;;;;;6.63;2.55;;;;;;;;;;4928621;29;20051;-78
2022/01/06 07:21:14;;;;;;;7.93;3.53;;;;;;;;;;4931153;29;20496;-79
2022/01/06 07:23:41;;;;;;;10.25;3.50;;;;;;;;;;4932179;29;20313;-79
2022/01/06 07:26:07;;;;;;;14.50;3.97;;;;;;;;;;4932436;29;20103;-80
2022/01/06 07:28:34;;;;;;;10.75;4.32;;;;;;;;;;4932161;29;20067;-80
2022/01/06 07:31:01;;;;;;;12.73;4.43;;;;;;;;;;4930399;29;20055;-79
2022/01/06 07:33:27;;;;;;;9.45;4.13;;;;;;;;;;4928955;29;20384;-78
2022/01/06 07:35:54;;;;;;;9.68;3.80;;;;;;;;;;4929465;29;20074;-80
2022/01/06 07:38:21;;;;;;;10.25;3.97;;;;;;;;;;4931459;29;20043;-80
2022/01/06 07:40:47;;;;;;;9.52;4.30;;;;;;;;;;4929733;29;20760;-79
2022/01/06 07:43:14;;;;;;;8.45;4.43;;;;;;;;;;4929092;29;20516;-79
2022/01/06 07:45:41;;;;;;;10.35;5.00;;;;;;;;;;4929479;29;20074;-80
2022/01/06 07:48:16;;;;;;;14.70;5.30;;;;;;;;;;4927955;29;20079;-80
2022/01/06 07:50:44;;;;;;;10.05;5.45;;;;;;;;;;4928805;29;20052;-80
2022/01/06 07:53:11;;;;;;;13.52;7.57;;;;;;;;;;4929418;29;20513;-80
2022/01/06 07:55:38;;;;;;;14.80;6.85;;;;;;;;;;4926301;29;20071;-80
2022/01/06 07:58:05;;;;;;;14.98;6.45;;;;;;;;;;4926893;29;20134;-80
2022/01/06 08:00:32;;;;;;;14.88;5.72;;;;;;;;;;4926616;29;20048;-80
2022/01/06 08:02:58;;;;;;;12.75;6.60;;;;;;;;;;4927601;29;20048;-80
2022/01/06 08:05:27;;;;;;;18.65;7.05;;;;;;;;;;4931390;29;20060;-80
2022/01/06 08:07:54;;;;;;;11.43;6.88;;;;;;;;;;4929567;29;20051;-80
2022/01/06 08:10:22;;;;;;;17.45;7.70;;;;;;;;;;4924933;29;20158;-80
2022/01/06 08:12:49;;;;;;;14.90;7.30;;;;;;;;;;4929023;29;20289;-80
2022/01/06 08:15:16;;;;;;;17.10;7.35;;;;;;;;;;4928561;29;20048;-80
2022/01/06 08:17:43;;;;;;;15.52;7.20;;;;;;;;;;4930461;29;20479;-80
2022/01/06 08:20:15;;;;;;;19.23;8.50;;;;;;;;;;4931092;29;20047;-80
2022/01/06 08:22:41;;;;;;;16.42;8.25;;;;;;;;;;4928814;29;20051;-80
2022/01/06 08:25:10;;;;;;;18.00;9.02;;;;;;;;;;4928156;29;20063;-80
2022/01/06 08:27:36;;;;;;;19.08;9.68;;;;;;;;;;4928871;29;20083;-80
2022/01/06 08:30:06;;;;;;;15.73;10.68;;;;;;;;;;4927989;29;20060;-80
2022/01/06 08:32:32;;;;;;;19.92;9.55;;;;;;;;;;4930731;29;20111;-80
2022/01/06 08:34:59;;;;;;;14.32;8.25;;;;;;;;;;4929738;29;20044;-80
2022/01/06 08:37:26;;;;;;;17.00;7.53;;;;;;;;;;4911056;29;20051;-80
2022/01/06 08:39:52;;;;;;;18.95;8.00;;;;;;;;;;4928556;29;20120;-80
2022/01/06 08:42:19;;;;;;;10.82;7.57;;;;;;;;;;4927745;29;20044;-80
2022/01/06 08:44:45;;;;;;;12.23;7.38;;;;;;;;;;4929782;29;20531;-79
2022/01/06 08:47:12;;;;;;;13.02;6.70;;;;;;;;;;4914256;29;20454;-80
2022/01/06 08:49:41;;;;;;;10.02;6.30;;;;;;;;;;4928074;29;20080;-80
2022/01/06 08:52:08;;;;;;;13.82;7.07;;;;;;;;;;4927594;29;20048;-79
2022/01/06 08:54:35;;;;;;;14.27;6.40;;;;;;;;;;4928557;29;20048;-79
2022/01/06 08:57:02;;;;;;;18.90;6.88;;;;;;;;;;4928317;29;20048;-80
2022/01/06 08:59:28;;;;;;;15.00;6.40;;;;;;;;;;4929812;29;20067;-79
2022/01/06 09:01:55;;;;;;;13.25;6.88;;;;;;;;;;4927719;29;20532;-80
2022/01/06 09:04:22;;;;;;;11.65;6.43;;;;;;;;;;4927738;29;20089;-80
2022/01/06 09:06:50;;;;;;;15.52;8.05;;;;;;;;;;4927784;29;20476;-79
2022/01/06 09:09:18;;;;;;;13.98;8.18;;;;;;;;;;4922638;29;20047;-80
2022/01/06 09:11:45;;;;;;;16.27;8.60;;;;;;;;;;4929079;29;20186;-79
2022/01/06 09:14:11;;;;;;;16.60;9.52;;;;;;;;;;4913480;29;20512;-80
2022/01/06 09:16:39;;;;;;;20.58;11.45;;;;;;;;;;4927903;29;20532;-80
2022/01/06 09:19:06;;;;;;;26.65;14.95;;;;;;;;;;4927438;29;20106;-79
2022/01/06 09:21:32;;;;;;;24.67;14.02;;;;;;;;;;4927216;29;20075;-80
2022/01/06 09:24:01;;;;;;;24.42;13.70;;;;;;;;;;4929460;29;20107;-80
2022/01/06 09:26:28;;;;;;;25.95;12.23;;;;;;;;;;4930066;29;20051;-80
2022/01/06 09:28:55;;;;;;;25.70;12.80;;;;;;;;;;4929305;29;20133;-80
2022/01/06 09:31:21;;;;;;;19.15;10.00;;;;;;;;;;4927193;29;20044;-80
2022/01/06 09:33:48;;;;;;;18.98;10.35;;;;;;;;;;4928162;29;20138;-80
2022/01/06 09:36:15;;;;;;;21.30;11.55;;;;;;;;;;4926869;29;20051;-80
2022/01/06 09:38:45;;;;;;;24.25;12.93;;;;;;;;;;4929237;29;20055;-80
2022/01/06 09:41:13;;;;;;;36.40;16.98;;;;;;;;;;4929441;29;20516;-80
2022/01/06 09:43:41;;;;;;;22.58;12.52;;;;;;;;;;4927270;29;20048;-80
2022/01/06 09:46:13;;;;;;;18.15;8.80;;;;;;;;;;4925798;29;20128;-80
2022/01/06 09:48:42;;;;;;;16.40;8.98;;;;;;;;;;4927896;29;20068;-80
2022/01/06 09:51:10;;;;;;;16.90;7.82;;;;;;;;;;4927311;29;20048;-80
2022/01/06 09:53:37;;;;;;;14.48;6.15;;;;;;;;;;4929852;29;20102;-80
2022/01/06 09:56:05;;;;;;;8.80;5.75;;;;;;;;;;4928890;29;20499;-80
2022/01/06 09:58:32;;;;;;;13.48;5.22;;;;;;;;;;4926351;29;20043;-80
2022/01/06 10:00:59;;;;;;;9.80;4.53;;;;;;;;;;4926780;29;20107;-80
2022/01/06 10:03:35;;;;;;;6.55;3.70;;;;;;;;;;4928662;29;20139;-80
2022/01/06 10:06:13;;;;;;;13.13;3.95;;;;;;;;;;4910391;29;20048;-80
2022/01/06 10:08:40;;;;;;;10.80;3.88;;;;;;;;;;4923815;29;20099;-80
2022/01/06 10:11:21;;;;;;;9.57;3.75;;;;;;;;;;4928632;29;20122;-80
2022/01/06 10:14:20;;;;;;;14.30;3.30;;;;;;;;;;4927811;29;20043;-80
2022/01/06 10:16:50;;;;;;;10.48;2.60;;;;;;;;;;4926933;29;20420;-80
2022/01/06 10:19:17;;;;;;;8.35;2.90;;;;;;;;;;4929959;29;20054;-80
2022/01/06 10:21:49;;;;;;;10.85;2.50;;;;;;;;;;4931077;29;20397;-80
2022/01/06 10:24:20;;;;;;;5.13;2.40;;;;;;;;;;4930020;29;20233;-80
2022/01/06 10:27:02;;;;;;;10.52;3.17;;;;;;;;;;4931786;29;20103;-80
2022/01/06 10:29:31;;;;;;;8.35;2.60;;;;;;;;;;4930398;29;20039;-80
2022/01/06 10:32:07;;;;;;;;;;;;;;;;;;4931269;29;20047;-80
2022/01/06 10:34:39;;;;;;;5.07;2.28;;;;;;;;;;4916186;29;19926;-80
2022/01/06 10:37:24;;;;;;;8.73;2.20;;;;;;;;;;4930433;29;20507;-80
2022/01/06 10:39:58;;;;;;;10.20;2.63;;;;;;;;;;4930182;29;20409;-80
2022/01/06 10:42:30;;;;;;;7.60;2.05;;;;;;;;;;4931231;29;20512;-80
2022/01/06 10:45:05;;;;;;;4.45;1.40;;;;;;;;;;4916276;29;20131;-80
2022/01/06 10:47:36;;;;;;;10.52;1.55;;;;;;;;;;4932818;29;20358;-80
2022/01/06 10:50:11;;;;;;;7.05;1.60;;;;;;;;;;4931043;29;20044;-79
2022/01/06 10:52:40;;;;;;;7.53;1.60;;;;;;;;;;4913275;29;20048;-80
2022/01/06 10:55:18;;;;;;;9.60;1.80;;;;;;;;;;4929581;29;20083;-79
2022/01/06 10:57:52;;;;;;;7.82;1.45;;;;;;;;;;4930676;29;20051;-80
2022/01/06 11:00:20;;;;;;;5.25;1.40;;;;;;;;;;4929395;29;20111;-80
2022/01/06 11:02:46;;;;;;;5.32;1.80;;;;;;;;;;4931289;29;20056;-80
2022/01/06 11:05:13;;;;;;;6.65;1.48;;;;;;;;;;4932170;29;20058;-80
2022/01/06 11:07:41;;;;;;;9.38;1.55;;;;;;;;;;4930132;29;20127;-80
2022/01/06 11:10:15;;;;;;;6.80;1.20;;;;;;;;;;4924227;29;20054;-80
2022/01/06 11:12:42;;;;;;;10.02;1.58;;;;;;;;;;4932702;29;20505;-80
2022/01/06 11:15:10;;;;;;;4.22;1.20;;;;;;;;;;4929240;29;20048;-80
2022/01/06 11:17:37;;;;;;;14.65;1.73;;;;;;;;;;4932189;29;20051;-79
2022/01/06 11:20:05;;;;;;;6.20;1.17;;;;;;;;;;4931626;29;20059;-80
2022/01/06 11:22:33;;;;;;;8.55;1.23;;;;;;;;;;4930540;29;20508;-80
2022/01/06 11:25:02;;;;;;;7.07;1.05;;;;;;;;;;4929451;29;20059;-80
2022/01/06 11:27:36;;;;;;;8.65;1.17;;;;;;;;;;4928394;29;20146;-80
2022/01/06 11:30:11;;;;;;;6.45;0.95;;;;;;;;;;4912731;29;20398;-80
2022/01/06 11:32:38;;;;;;;13.13;1.35;;;;;;;;;;4915526;29;20518;-79
2022/01/06 11:35:11;;;;;;;7.70;3.30;;;;;;;;;;4931140;29;20059;-79
2022/01/06 11:37:49;;;;;;;13.60;7.80;;;;;;;;;;4929502;29;20055;-79
2022/01/06 11:40:30;;;;;;;11.40;3.22;;;;;;;;;;4928254;29;20055;-79
2022/01/06 11:42:57;;;;;;;4.90;1.85;;;;;;;;;;4929581;29;20055;-80
2022/01/06 11:45:24;;;;;;;7.95;1.33;;;;;;;;;;4928827;29;20422;-80
2022/01/06 11:48:08;;;;;;;9.02;4.72;;;;;;;;;;4914670;29;20051;-80
2022/01/06 11:50:41;;;;;;;8.23;1.95;;;;;;;;;;4929721;29;20066;-80
2022/01/06 11:53:08;;;;;;;12.25;3.97;;;;;;;;;;4930231;29;20155;-80
2022/01/06 11:55:46;;;;;;;7.07;2.87;;;;;;;;;;4929037;29;20126;-80
2022/01/06 11:58:16;;;;;;;10.03;1.27;;;;;;;;;;4928380;29;20304;-80
2022/01/06 12:00:59;;;;;;;4.70;1.13;;;;;;;;;;4930172;29;20107;-80
2022/01/06 12:03:44;;;;;;;6.97;1.67;;;;;;;;;;4928721;29;20043;-80
2022/01/06 12:06:30;;;;;;;7.00;2.28;;;;;;;;;;4928480;29;20056;-79
2022/01/06 12:08:58;;;;;;;41.03;12.70;;;;;;;;;;4914835;29;20398;-80
2022/01/06 12:11:26;;;;;;;22.00;7.43;;;;;;;;;;4925322;29;20119;-81
2022/01/06 12:13:56;;;;;;;19.63;8.27;;;;;;;;;;4925994;29;20075;-81
2022/01/06 12:16:25;;;;;;;24.42;8.93;;;;;;;;;;4925321;29;20543;-80
2022/01/06 12:18:52;;;;;;;10.73;1.90;;;;;;;;;;4924829;29;20513;-81
2022/01/06 12:21:19;;;;;;;15.07;5.22;;;;;;;;;;4925761;29;20071;-81
2022/01/06 12:23:47;;;;;;;16.33;5.43;;;;;;;;;;4926115;29;20055;-81
2022/01/06 12:26:13;;;;;;;7.65;1.48;;;;;;;;;;4909961;29;20059;-80
2022/01/06 12:28:48;;;;;;;4.70;1.20;;;;;;;;;;4927230;29;20059;-82
2022/01/06 12:31:29;;;;;;;13.45;1.73;;;;;;;;;;4926556;29;20055;-81
2022/01/06 12:33:58;;;;;;;6.95;1.55;;;;;;;;;;4928473;29;20048;-81
2022/01/06 12:36:27;;;;;;;10.70;1.60;;;;;;;;;;4928080;29;20158;-81
2022/01/06 12:38:54;;;;;;;;;;;;;;;;;;4913660;29;20048;-81
2022/01/06 12:41:29;;;;;;;7.13;1.23;;;;;;;;;;4926828;29;20414;-81
2022/01/06 12:43:57;;;;;;;7.47;1.65;;;;;;;;;;4930367;29;20103;-81
2022/01/06 12:46:31;;;;;;;8.27;1.40;;;;;;;;;;4930760;29;20241;-81
2022/01/06 12:48:58;;;;;;;8.13;1.27;;;;;;;;;;4927990;29;20587;-81
2022/01/06 12:51:24;;;;;;;13.32;1.50;;;;;;;;;;4928211;29;20055;-80
2022/01/06 12:54:18;;;;;;;7.72;1.20;;;;;;;;;;4928702;29;20056;-81
2022/01/06 12:56:47;;;;;;;10.20;1.38;;;;;;;;;;4928809;29;20055;-81
2022/01/06 12:59:23;;;;;;;5.75;1.20;;;;;;;;;;4930062;29;20048;-80
2022/01/06 13:01:57;;;;;;;5.50;1.20;;;;;;;;;;4928988;29;20143;-81
2022/01/06 13:04:29;;;;;;;9.40;1.65;;;;;;;;;;4927553;29;20103;-80
2022/01/06 13:07:00;;;;;;;10.32;1.88;;;;;;;;;;4927432;29;20051;-81
2022/01/06 13:09:32;;;;;;;9.88;1.83;;;;;;;;;;4922130;29;20068;-80
2022/01/06 13:12:02;;;;;;;6.78;1.77;;;;;;;;;;4928117;29;20115;-81
2022/01/06 13:14:31;;;;;;;10.65;2.25;;;;;;;;;;4930643;29;20049;-81
2022/01/06 13:17:05;;;;;;;8.18;1.50;;;;;;;;;;4928516;29;20051;-81
2022/01/06 13:19:32;;;;;;;7.68;1.65;;;;;;;;;;4927892;29;20511;-81
2022/01/06 13:22:03;;;;;;;8.23;1.30;;;;;;;;;;4927744;29;20056;-81
2022/01/06 13:24:35;;;;;;;9.38;1.27;;;;;;;;;;4927569;29;20055;-80
2022/01/06 13:27:10;;;;;;;8.85;1.23;;;;;;;;;;4927567;29;20489;-80
2022/01/06 13:29:39;;;;;;;7.47;1.50;;;;;;;;;;4912509;29;20093;-80
2022/01/06 13:32:07;;;;;;;11.00;1.35;;;;;;;;;;4913290;29;20052;-80
2022/01/06 13:34:37;;;;;;;13.77;1.65;;;;;;;;;;4910632;29;20059;-81
2022/01/06 13:37:16;;;;;;;10.68;1.83;;;;;;;;;;4927130;29;20048;-79
2022/01/06 13:39:47;;;;;;;8.70;1.23;;;;;;;;;;4927621;29;20110;-80
2022/01/06 13:42:32;;;;;;;8.50;1.77;;;;;;;;;;4926886;29;20048;-81
2022/01/06 13:45:09;;;;;;;8.20;1.50;;;;;;;;;;4912647;29;20064;-81
2022/01/06 13:47:55;;;;;;;10.50;1.50;;;;;;;;;;4929568;29;20052;-80
2022/01/06 13:53:30;;;;;;;9.23;1.55;;;;;;;;;;4927425;29;20059;-80
2022/01/06 13:56:27;;;;;;;11.25;1.70;;;;;;;;;;4933499;29;20055;-80
2022/01/06 13:58:54;;;;;;;8.75;1.70;;;;;;;;;;4931169;29;20581;-80
2022/01/06 14:01:23;;;;;;;10.80;1.50;;;;;;;;;;4930835;29;20091;-80
2022/01/06 14:03:50;;;;;;;8.10;1.40;;;;;;;;;;4931087;29;20058;-79
2022/01/06 14:06:18;;;;;;;12.20;1.40;;;;;;;;;;4932382;29;20102;-79
2022/01/06 14:08:46;;;;;;;16.77;1.67;;;;;;;;;;4927080;29;20126;-80
2022/01/06 14:11:15;;;;;;;10.30;1.30;;;;;;;;;;4933134;29;20075;-80
2022/01/06 14:13:43;;;;;;;13.93;1.40;;;;;;;;;;4931060;29;20103;-80
2022/01/06 14:16:11;;;;;;;8.15;1.63;;;;;;;;;;4930358;29;20075;-80
2022/01/06 14:18:38;;;;;;;10.38;1.55;;;;;;;;;;4931096;29;20064;-80
2022/01/06 14:21:05;;;;;;;17.35;2.03;;;;;;;;;;4930562;29;20402;-79
2022/01/06 14:23:34;;;;;;;11.82;1.33;;;;;;;;;;4932993;29;20064;-80
2022/01/06 14:26:03;;;;;;;10.85;1.50;;;;;;;;;;4931749;29;20054;-80
2022/01/06 14:28:31;;;;;;;11.10;1.58;;;;;;;;;;4930532;29;20128;-80
2022/01/06 14:31:03;;;;;;;11.05;1.55;;;;;;;;;;4930870;29;20043;-80
2022/01/06 14:33:31;;;;;;;8.80;1.23;;;;;;;;;;4930299;29;20043;-80
2022/01/06 14:35:58;;;;;;;12.63;1.58;;;;;;;;;;4932139;29;20052;-80
2022/01/06 14:38:35;;;;;;;16.73;2.53;;;;;;;;;;4917021;29;20064;-80
2022/01/06 14:41:01;;;;;;;12.95;1.70;;;;;;;;;;4932164;29;20134;-80
2022/01/06 14:43:28;;;;;;;19.58;2.10;;;;;;;;;;4930311;29;20496;-80
2022/01/06 14:45:55;;;;;;;6.15;1.45;;;;;;;;;;4930105;29;20103;-80
2022/01/06 14:48:21;;;;;;;11.80;1.55;;;;;;;;;;4930177;29;20039;-80
2022/01/06 14:50:48;;;;;;;21.33;2.45;;;;;;;;;;4931274;29;20048;-80
2022/01/06 14:53:15;;;;;;;15.93;2.67;;;;;;;;;;4932471;29;20103;-80
2022/01/06 14:55:42;;;;;;;14.65;1.88;;;;;;;;;;4930328;29;20126;-79
2022/01/06 14:58:09;;;;;;;11.68;1.70;;;;;;;;;;4929098;29;20606;-80
2022/01/06 15:00:39;;;;;;;12.65;1.30;;;;;;;;;;4929977;29;20111;-80
2022/01/06 15:03:06;;;;;;;15.60;1.50;;;;;;;;;;4930143;29;20044;-79
2022/01/06 15:05:33;;;;;;;11.65;2.08;;;;;;;;;;4931728;29;20047;-79
2022/01/06 15:08:00;;;;;;;14.10;1.92;;;;;;;;;;4928162;29;20047;-81
2022/01/06 15:10:27;;;;;;;13.32;2.00;;;;;;;;;;4926444;29;20047;-80
2022/01/06 15:12:53;;;;;;;11.10;1.85;;;;;;;;;;4929931;29;20052;-80
2022/01/06 15:15:22;;;;;;;14.55;2.13;;;;;;;;;;4930924;29;20048;-80
2022/01/06 15:17:49;;;;;;;12.73;1.80;;;;;;;;;;4925450;29;20047;-78
2022/01/06 15:20:16;;;;;;;14.95;1.70;;;;;;;;;;4921801;29;20080;-79
2022/01/06 15:22:43;;;;;;;16.13;2.40;;;;;;;;;;4923018;29;20469;-78
2022/01/06 15:25:11;;;;;;;22.42;2.90;;;;;;;;;;4921740;29;20432;-78
2022/01/06 15:27:40;;;;;;;14.70;2.28;;;;;;;;;;4922606;29;20111;-78
2022/01/06 15:30:08;;;;;;;12.52;1.77;;;;;;;;;;4922324;29;20058;-78
2022/01/06 15:32:35;;;;;;;13.32;1.92;;;;;;;;;;4932286;29;20126;-78
2022/01/06 15:35:05;;;;;;;13.85;2.63;;;;;;;;;;4914399;29;20072;-77
2022/01/06 15:37:31;;;;;;;18.55;2.03;;;;;;;;;;4912597;29;20819;-78
2022/01/06 15:39:59;;;;;;;16.92;1.90;;;;;;;;;;4908573;29;20538;-79
2022/01/06 15:42:26;;;;;;;15.40;1.88;;;;;;;;;;4929510;29;20054;-77
2022/01/06 15:45:12;;;;;;;20.08;2.30;;;;;;;;;;4916355;29;20402;-77
2022/01/06 15:47:39;;;;;;;11.57;2.00;;;;;;;;;;4931664;29;20062;-78
2022/01/06 15:50:06;;;;;;;15.63;1.73;;;;;;;;;;4930833;29;20083;-78
2022/01/06 15:52:32;;;;;;;12.80;1.58;;;;;;;;;;4929348;29;20046;-78
2022/01/06 15:54:59;;;;;;;19.10;2.30;;;;;;;;;;4929731;29;20079;-77
2022/01/06 15:57:26;;;;;;;13.38;1.50;;;;;;;;;;4929030;29;20048;-77
2022/01/06 16:00:02;;;;;;;12.73;2.13;;;;;;;;;;4929427;29;20060;-77
2022/01/06 16:05:15;;;;;;;15.02;2.10;;;;;;;;;;4922647;29;20468;-78
2022/01/06 16:07:45;;;;;;;20.35;2.25;;;;;;;;;;4919344;29;20102;-76
2022/01/06 16:10:13;;;;;;;15.10;2.22;;;;;;;;;;4923725;29;20517;-78
2022/01/06 16:12:41;;;;;;;13.30;1.92;;;;;;;;;;4926617;29;20048;-77
2022/01/06 16:15:09;;;;;;;21.35;2.40;;;;;;;;;;4922041;29;20099;-77
2022/01/06 16:17:36;;;;;;;23.95;2.35;;;;;;;;;;4903371;29;20063;-79
2022/01/06 16:20:04;;;;;;;15.13;2.60;;;;;;;;;;4922941;29;20107;-78
2022/01/06 16:22:31;;;;;;;20.83;2.88;;;;;;;;;;4921980;29;20661;-78
2022/01/06 16:24:58;;;;;;;18.80;2.42;;;;;;;;;;4922781;29;20075;-79
2022/01/06 16:27:25;;;;;;;15.00;2.55;;;;;;;;;;4922803;29;20071;-78
2022/01/06 16:30:02;;;;;;;14.57;2.00;;;;;;;;;;4921518;29;20134;-79
2022/01/06 16:32:29;;;;;;;21.08;3.38;;;;;;;;;;4921698;29;20164;-80
2022/01/06 16:34:56;;;;;;;24.83;2.33;;;;;;;;;;4923194;29;20072;-79
2022/01/06 16:37:23;;;;;;;20.05;2.17;;;;;;;;;;4921258;29;20043;-80
2022/01/06 16:39:51;;;;;;;20.23;2.60;;;;;;;;;;4922256;29;20056;-80
2022/01/06 16:42:18;;;;;;;16.67;2.45;;;;;;;;;;4922422;29;20047;-79
2022/01/06 16:44:45;;;;;;;15.38;2.00;;;;;;;;;;4903211;29;20052;-80
2022/01/06 16:47:12;;;;;;;21.85;2.63;;;;;;;;;;4921122;29;20583;-78
2022/01/06 16:49:39;;;;;;;24.65;2.80;;;;;;;;;;4921500;29;20067;-79
2022/01/06 16:52:09;;;;;;;17.58;2.50;;;;;;;;;;4921892;29;20051;-77
2022/01/06 16:54:37;;;;;;;18.25;2.63;;;;;;;;;;4922573;29;20056;-78
2022/01/06 16:57:05;;;;;;;;;;;;;;;;;;4921841;29;20054;-76
2022/01/06 16:59:32;;;;;;;18.83;2.53;;;;;;;;;;4919518;29;19979;-78
2022/01/06 17:01:59;;;;;;;14.60;2.50;;;;;;;;;;4922765;28;20048;-79
2022/01/06 17:04:27;;;;;;;16.02;3.03;;;;;;;;;;4921327;29;20067;-80
2022/01/06 17:06:54;;;;;;;25.48;3.60;;;;;;;;;;4907161;29;20134;-80
2022/01/06 17:09:21;;;;;;;21.70;2.97;;;;;;;;;;4926893;29;20394;-78
2022/01/06 17:11:47;;;;;;;19.63;2.92;;;;;;;;;;4928605;29;20119;-79
2022/01/06 17:14:15;;;;;;;18.17;3.08;;;;;;;;;;4929139;29;20079;-79
2022/01/06 17:16:42;;;;;;;26.58;5.28;;;;;;;;;;4928261;29;20066;-77
2022/01/06 17:19:11;;;;;;;24.20;4.13;;;;;;;;;;4927679;29;20099;-78
2022/01/06 17:21:38;;;;;;;23.25;3.88;;;;;;;;;;4926065;29;20056;-78
2022/01/06 17:24:05;;;;;;;23.35;2.75;;;;;;;;;;4927896;29;20044;-77
2022/01/06 17:26:32;;;;;;;31.30;5.25;;;;;;;;;;4929268;29;20075;-79
2022/01/06 17:29:00;;;;;;;21.27;2.80;;;;;;;;;;4928188;29;20596;-78
2022/01/06 17:31:28;;;;;;;25.20;3.03;;;;;;;;;;4927438;29;20565;-79
2022/01/06 17:33:54;;;;;;;28.90;3.67;;;;;;;;;;4927704;29;20044;-79
2022/01/06 17:36:22;;;;;;;19.85;3.05;;;;;;;;;;4928709;29;20044;-80
2022/01/06 17:38:49;;;;;;;26.48;2.97;;;;;;;;;;4929026;29;20035;-80
2022/01/06 17:41:16;;;;;;;33.72;6.65;;;;;;;;;;4929473;29;20508;-79
2022/01/06 17:44:00;;;;;;;32.22;7.30;;;;;;;;;;4917123;29;20048;-81
2022/01/06 17:46:27;;;;;;;25.52;4.57;;;;;;;;;;4901121;29;20052;-80
2022/01/06 17:48:54;;;;;;;30.98;5.57;;;;;;;;;;4928517;29;20059;-78
2022/01/06 17:51:21;;;;;;;32.05;5.30;;;;;;;;;;4928665;29;20044;-79
2022/01/06 17:53:49;;;;;;;24.67;3.70;;;;;;;;;;4911664;29;20055;-79
2022/01/06 17:56:17;;;;;;;26.88;3.67;;;;;;;;;;4928754;29;20047;-80
2022/01/06 17:58:44;;;;;;;31.48;3.70;;;;;;;;;;4921524;29;20335;-81
2022/01/06 18:01:11;;;;;;;33.92;4.28;;;;;;;;;;4921867;29;20369;-80
2022/01/06 18:03:38;;;;;;;29.23;3.60;;;;;;;;;;4927847;29;20044;-80
2022/01/06 18:06:09;;;;;;;28.27;4.57;;;;;;;;;;4926812;29;20119;-80
2022/01/06 18:08:49;;;;;;;32.38;5.43;;;;;;;;;;4925238;29;20044;-80
2022/01/06 18:11:20;;;;;;;35.72;4.75;;;;;;;;;;4928585;29;20043;-80
2022/01/06 18:13:52;;;;;;;30.58;4.20;;;;;;;;;;4928362;29;20072;-80
2022/01/06 18:16:20;;;;;;;28.00;3.85;;;;;;;;;;4921533;29;20043;-78
2022/01/06 18:18:47;;;;;;;;;;;;;;;;;;4911915;29;20047;-79
2022/01/06 18:21:14;;;;;;;33.35;3.25;;;;;;;;;;4927609;29;20402;-79
2022/01/06 18:23:41;;;;;;;22.15;3.25;;;;;;;;;;4928229;29;20051;-80
2022/01/06 18:26:08;;;;;;;24.40;3.08;;;;;;;;;;4928479;29;20157;-79
2022/01/06 18:28:36;;;;;;;15.48;1.63;;;;;;;;;;4928606;29;20575;-79
2022/01/06 18:31:04;;;;;;;12.30;2.15;;;;;;;;;;4928077;29;20047;-80
2022/01/06 18:33:36;;;;;;;19.90;2.25;;;;;;;;;;4927960;29;20059;-80
2022/01/06 18:36:08;;;;;;;22.27;3.17;;;;;;;;;;4909298;29;20043;-80
2022/01/06 18:38:34;;;;;;;37.15;7.43;;;;;;;;;;4928432;29;20512;-81
2022/01/06 18:41:02;;;;;;;33.30;3.47;;;;;;;;;;4931867;29;20479;-80
2022/01/06 18:43:28;;;;;;;49.70;13.63;;;;;;;;;;4930356;29;20134;-80
2022/01/06 18:45:55;;;;;;;35.92;5.15;;;;;;;;;;4930585;29;20516;-80
2022/01/06 18:48:23;;;;;;;94.32;31.67;;;;;;;;;;4930361;29;20095;-80
2022/01/06 18:50:51;;;;;;;54.70;16.25;;;;;;;;;;4930258;29;20052;-80
2022/01/06 18:53:24;;;;;;;34.90;5.22;;;;;;;;;;4927488;29;20058;-79
2022/01/06 18:55:51;;;;;;;29.70;6.22;;;;;;;;;;4931016;29;20114;-79
2022/01/06 18:58:17;;;;;;;37.08;4.15;;;;;;;;;;4928982;29;20048;-82
2022/01/06 19:00:44;;;;;;;38.53;5.88;;;;;;;;;;4929847;29;20114;-81
2022/01/06 19:03:11;;;;;;;34.47;4.57;;;;;;;;;;4930449;29;20115;-83
2022/01/06 19:05:43;;;;;;;25.88;4.80;;;;;;;;;;4932364;29;20067;-82
2022/01/06 19:08:09;;;;;;;44.15;5.78;;;;;;;;;;4927696;29;20048;-82
2022/01/06 19:10:36;;;;;;;31.88;5.03;;;;;;;;;;4927387;29;20517;-81
2022/01/06 19:13:05;;;;;;;40.75;5.22;;;;;;;;;;4927603;29;20127;-85
2022/01/06 19:15:33;;;;;;;49.13;6.88;;;;;;;;;;4913497;29;20063;-85
2022/01/06 19:18:07;;;;;;;36.50;6.85;;;;;;;;;;4902241;29;20048;-85
2022/01/06 19:20:34;;;;;;;52.00;11.00;;;;;;;;;;4929310;29;21939;-84
2022/01/06 19:23:01;;;;;;;36.85;7.10;;;;;;;;;;4929521;29;20516;-84
2022/01/06 19:25:28;;;;;;;47.05;6.18;;;;;;;;;;4929153;29;20044;-82
2022/01/06 19:27:55;;;;;;;60.03;6.80;;;;;;;;;;4908551;29;20064;-81
2022/01/06 19:30:21;;;;;;;64.50;6.53;;;;;;;;;;4928931;29;20531;-81
2022/01/06 19:33:08;;;;;;;58.38;6.65;;;;;;;;;;4914395;29;20099;-80
2022/01/06 19:35:35;;;;;;;62.15;7.18;;;;;;;;;;4928254;29;20095;-80
2022/01/06 19:38:01;;;;;;;65.30;6.55;;;;;;;;;;4928741;29;20051;-79
2022/01/06 19:40:28;;;;;;;53.22;7.38;;;;;;;;;;4910709;29;20687;-80
2022/01/06 19:42:55;;;;;;;76.88;10.40;;;;;;;;;;4925046;29;20517;-79
2022/01/06 19:45:22;;;;;;;46.45;5.38;;;;;;;;;;4928704;29;20071;-80
2022/01/06 19:47:49;;;;;;;33.33;4.70;;;;;;;;;;4929338;29;20146;-79
2022/01/06 19:50:17;;;;;;;29.38;4.97;;;;;;;;;;4928341;29;20052;-80
2022/01/06 19:52:45;;;;;;;36.60;5.20;;;;;;;;;;4927729;29;20036;-80
2022/01/06 19:55:14;;;;;;;40.43;5.23;;;;;;;;;;4923043;29;20142;-79
2022/01/06 19:57:42;;;;;;;44.08;14.63;;;;;;;;;;4928736;29;20284;-79
2022/01/06 20:00:12;;;;;;;36.60;4.53;;;;;;;;;;4927265;29;20123;-78
2022/01/06 20:02:39;;;;;;;35.45;4.45;;;;;;;;;;4927010;29;20051;-79
2022/01/06 20:05:06;;;;;;;44.63;7.82;;;;;;;;;;4926733;29;20056;-79
2022/01/06 20:07:33;;;;;;;37.08;5.13;;;;;;;;;;4924089;29;20110;-84
2022/01/06 20:10:01;;;;;;;54.53;6.10;;;;;;;;;;4927465;29;20052;-82
2022/01/06 20:12:28;;;;;;;65.80;8.10;;;;;;;;;;4927381;29;20870;-82
2022/01/06 20:14:57;;;;;;;69.72;13.45;;;;;;;;;;4927567;29;20055;-82
2022/01/06 20:17:31;;;;;;;69.30;8.68;;;;;;;;;;4928160;29;20074;-83
2022/01/06 20:19:57;;;;;;;55.42;8.10;;;;;;;;;;4927977;29;20055;-83
2022/01/06 20:22:24;;;;;;;73.80;8.05;;;;;;;;;;4927068;29;20051;-82
2022/01/06 20:24:51;;;;;;;58.90;8.18;;;;;;;;;;4911341;29;20059;-81
2022/01/06 20:27:18;;;;;;;70.95;7.35;;;;;;;;;;4927764;29;20138;-79
2022/01/06 20:29:44;;;;;;;69.93;8.63;;;;;;;;;;4909954;29;20044;-81
2022/01/06 20:32:12;;;;;;;57.60;8.00;;;;;;;;;;4926681;29;20529;-79
2022/01/06 20:34:39;;;;;;;57.67;7.90;;;;;;;;;;4909600;29;20048;-80
2022/01/06 20:37:06;;;;;;;69.15;7.78;;;;;;;;;;4925078;29;20074;-80
2022/01/06 20:39:34;;;;;;;82.07;7.88;;;;;;;;;;4908029;29;20139;-80
2022/01/06 20:42:03;;;;;;;80.97;8.40;;;;;;;;;;4925818;29;20091;-80
2022/01/06 20:44:30;;;;;;;54.80;7.90;;;;;;;;;;4925985;29;20052;-80
2022/01/06 20:47:08;;;;;;;66.78;8.13;;;;;;;;;;4909700;29;20056;-80
2022/01/06 20:52:21;;;;;;;64.45;7.72;;;;;;;;;;4925530;29;20067;-80
2022/01/06 20:54:48;;;;;;;70.57;7.72;;;;;;;;;;4925521;29;20055;-81
2022/01/06 20:57:18;;;;;;;73.43;7.80;;;;;;;;;;4925671;29;20044;-81
2022/01/06 20:59:46;;;;;;;59.85;7.13;;;;;;;;;;4908710;29;20347;-83
2022/01/06 21:02:12;;;;;;;58.03;8.35;;;;;;;;;;4926031;29;20048;-79
2022/01/06 21:04:39;;;;;;;60.50;7.75;;;;;;;;;;4909400;29;20511;-82
2022/01/06 21:07:06;;;;;;;66.20;6.70;;;;;;;;;;4926555;29;20051;-82
2022/01/06 21:09:33;;;;;;;58.90;6.95;;;;;;;;;;4926670;29;20044;-82
2022/01/06 21:12:00;;;;;;;63.33;5.95;;;;;;;;;;4927066;29;20047;-82
2022/01/06 21:14:27;;;;;;;56.08;6.65;;;;;;;;;;4927317;29;20052;-82
2022/01/06 21:16:53;;;;;;;69.50;6.72;;;;;;;;;;4927507;29;20056;-81
2022/01/06 21:19:20;;;;;;;66.13;8.27;;;;;;;;;;4926133;29;20044;-81
2022/01/06 21:21:47;;;;;;;51.83;6.93;;;;;;;;;;4927184;29;20102;-80
2022/01/06 21:24:14;;;;;;;57.38;5.80;;;;;;;;;;4926446;29;20078;-81
2022/01/06 21:26:40;;;;;;;56.53;6.72;;;;;;;;;;4927549;29;20099;-82
2022/01/06 21:29:07;;;;;;;48.10;6.30;;;;;;;;;;4927304;29;20075;-82
2022/01/06 21:31:34;;;;;;;58.10;6.38;;;;;;;;;;4926518;29;20047;-82
2022/01/06 21:34:01;;;;;;;60.28;6.82;;;;;;;;;;4925816;29;20048;-81
2022/01/06 21:36:28;;;;;;;56.13;5.75;;;;;;;;;;4923346;29;20056;-82
2022/01/06 21:38:54;;;;;;;49.97;6.32;;;;;;;;;;4926302;29;20048;-81
2022/01/06 21:41:21;;;;;;;57.17;6.40;;;;;;;;;;4925911;29;20079;-81
2022/01/06 21:43:48;;;;;;;56.03;6.05;;;;;;;;;;4924788;29;20048;-82
2022/01/06 21:46:15;;;;;;;56.60;6.68;;;;;;;;;;4924660;29;20497;-82
2022/01/06 21:48:42;;;;;;;64.38;5.80;;;;;;;;;;4907927;29;20054;-81
2022/01/06 21:51:08;;;;;;;53.03;5.82;;;;;;;;;;4926257;29;20103;-85
2022/01/06 21:53:35;;;;;;;48.55;5.50;;;;;;;;;;4912202;29;20384;-82